PDT,Max TemperatureF,Mean TemperatureF,Min TemperatureF,Max Dew PointF,MeanDew PointF,Min DewpointF,Max Humidity, Mean Humidity, Min Humidity, Max Sea Level PressureIn, Mean Sea Level PressureIn, Min Sea Level PressureIn, Max VisibilityMiles, Mean VisibilityMiles, Min VisibilityMiles, Max Wind SpeedMPH, Mean Wind SpeedMPH, Max Gust SpeedMPH,PrecipitationIn, CloudCover, Events, WindDirDegrees
2014-5-1,83,58,32,39,27,17,82,35,9,30.18,30.12,30.04,10,10,10,14,4,17,0.00,0,,299
2014-5-2,78,57,36,39,35,29,92,48,18,30.12,30.01,29.87,10,10,10,20,6,22,0.00,0,,208
2014-5-3,68,52,35,40,36,33,92,59,27,29.91,29.85,29.77,10,10,10,22,9,27,0.00,0,,276
2014-5-4,63,49,35,37,33,27,89,59,28,29.95,29.87,29.84,10,10,10,26,10,33,T,4,,265
2014-5-5,53,45,36,35,32,26,92,63,38,29.97,29.93,29.88,10,10,10,23,12,28,0.00,5,,303
2014-5-6,59,45,30,32,29,26,85,53,28,29.97,29.93,29.88,10,10,10,28,11,33,0.00,2,,326
2014-5-7,63,45,26,32,27,24,92,54,25,29.96,29.92,29.87,10,10,10,17,5,22,0.00,1,,276
2014-5-8,59,49,39,45,40,31,86,75,51,29.93,29.87,29.80,10,8,2,23,8,29,0.43,8,Rain,226
2014-5-9,55,47,38,40,35,30,89,72,41,30.10,30.01,29.90,10,10,9,25,14,32,0.08,8,Rain,276
2014-5-10,52,42,31,34,30,25,89,67,35,30.21,30.10,30.05,10,9,2,28,14,40,0.01,4,Rain-Snow,302
2014-5-11,63,44,24,37,28,23,85,56,23,30.27,30.21,30.14,10,10,10,15,5,19,0.00,0,,329
2014-5-12,71,53,34,35,31,26,82,45,20,30.27,30.23,30.18,10,10,10,14,4,17,T,0,,30
2014-5-13,78,58,38,38,31,25,76,39,15,30.32,30.26,30.21,10,10,10,13,4,14,0.00,0,,16
2014-5-14,82,63,44,42,33,20,68,39,10,30.28,30.20,30.09,10,10,10,13,3,16,0.00,0,,19
2014-5-15,84,62,40,46,39,32,83,48,15,30.15,30.09,30.02,10,10,10,20,6,22,0.00,0,,249
2014-5-16,76,59,42,43,33,18,89,46,12,30.05,30.01,29.98,10,10,10,23,8,29,0.00,0,,290
2014-5-17,72,54,36,41,35,26,92,52,20,30.00,29.91,29.81,10,10,10,22,8,29,0.00,1,,280
2014-5-18,59,48,37,42,37,33,85,67,43,29.95,29.89,29.83,10,9,2,31,9,36,0.10,4,Rain,286
2014-5-19,62,49,36,42,38,34,92,74,34,29.95,29.91,29.82,10,8,2,22,4,27,0.63,7,Rain-Thunderstorm,80
2014-5-20,68,56,43,43,41,35,92,63,32,30.03,29.96,29.91,10,10,10,29,12,35,0.00,4,,342
2014-5-21,75,59,43,48,40,29,83,53,19,30.01,29.97,29.91,10,10,10,23,10,29,0.00,0,,324
2014-5-22,78,61,43,46,38,26,83,48,15,30.11,30.01,29.95,10,10,10,17,5,23,0.00,0,,344
2014-5-23,76,61,45,48,43,39,82,59,33,30.11,30.03,30.00,10,10,10,24,8,27,T,2,Rain,310
2014-5-24,77,58,39,47,37,21,96,54,17,30.11,30.05,29.98,10,10,10,16,5,21,0.00,0,,293
2014-5-25,78,61,43,43,40,35,89,50,23,30.06,30.00,29.94,10,10,10,20,6,26,0.00,0,,267
2014-5-26,74,56,38,43,38,28,89,55,20,30.06,30.03,29.98,10,10,10,21,8,26,0.00,1,,283
2014-5-27,68,53,37,42,34,21,100,57,18,30.06,30.00,29.95,10,9,2,23,10,28,0.00,0,,285
2014-5-28,59,47,34,34,29,25,82,56,30,30.17,30.10,30.03,10,10,10,20,8,26,0.00,0,,296
2014-5-29,71,49,27,32,27,19,92,47,15,30.18,30.07,29.94,10,10,6,14,5,18,0.00,0,,18
2014-5-30,77,57,37,43,32,22,71,44,13,30.00,29.90,29.83,10,10,6,22,5,32,0.07,1,Thunderstorm,344
2014-5-31,74,56,37,45,35,25,92,49,20,29.98,29.94,29.92,10,10,10,18,6,24,0.00,0,,315